Melbeta, Nebraska
Current Conditions -  °F | °C
As of 7:53 AM on Monday 22 Dec 2014 (Local Time) from KBFF Reporting Station
Broken Clouds Broken Clouds  
Wind Chill: 24°   Ceiling: 9000
Heat Index: 32°   Visibility: 10mi
Dew Point: 26°   Wind: 9mph
Humidity: 79%   Direction: 300°WNW
Pressure: 29.69"   Gusts: NA
Location:  41.78°N, 103.52°W
Report Text: KBFF 221453Z AUTO 30008KT 10SM BKN090 00/M03 A2969 RMK AO2 SLP067 T00001033 51004
Loading
Personal Weather Stations






























Interactive Weather Map New forecast layout! Learn more

10-Day Weather Forecast

Advertisements
Track Severe Weather on mobile